<?xml version='1.0' encoding='UTF-8'?>
<gpx xmlns="http://www.topografix.com/GPX/1/1" creator="www.balnam.be" version="1.1" xmlns:xsi="http://www.w3.org/2001/XMLSchema-instance" xsi:schemaLocation="http://www.topografix.com/GPX/1/1 http://www.topografix.com/GPX/1/1/gpx.xsd">
<trk>
<name>ncrcr6</name>
<cmt>v</cmt>
<desc>Cerfontaine Chemin n°6 </desc>
<link href="https://chemins.be/cerfontaine/chemin/6"/><trkseg>
<trkpt lat="50.174490" lon="4.409227"><time>2026-05-02T16:08:54Z</time></trkpt>
<trkpt lat="50.174807" lon="4.408771"><time>2026-05-02T16:18:54Z</time></trkpt>
</trkseg></trk>
<trk>
<name>ncrcr6</name>
<cmt>d</cmt>
<desc>Cerfontaine Chemin n°6 </desc>
<link href="https://chemins.be/cerfontaine/chemin/6"/><trkseg>
<trkpt lat="50.174807" lon="4.408771"><time>2026-05-02T16:18:54Z</time></trkpt>
<trkpt lat="50.175047" lon="4.407955"><time>2026-05-02T16:28:54Z</time></trkpt>
<trkpt lat="50.175061" lon="4.407741"><time>2026-05-02T16:38:54Z</time></trkpt>
</trkseg></trk>
<trk>
<name>ncrcr6</name>
<cmt>v</cmt>
<desc>Cerfontaine Chemin n°6 </desc>
<link href="https://chemins.be/cerfontaine/chemin/6"/><trkseg>
<trkpt lat="50.175061" lon="4.407741"><time>2026-05-02T16:38:54Z</time></trkpt>
<trkpt lat="50.175240" lon="4.407117"><time>2026-05-02T16:48:54Z</time></trkpt>
</trkseg></trk>
<trk>
<name>ncrcr6</name>
<cmt>d</cmt>
<desc>Cerfontaine Chemin n°6 </desc>
<link href="https://chemins.be/cerfontaine/chemin/6"/><trkseg>
<trkpt lat="50.175240" lon="4.407117"><time>2026-05-02T16:48:54Z</time></trkpt>
<trkpt lat="50.175230" lon="4.407117"><time>2026-05-02T16:58:54Z</time></trkpt>
<trkpt lat="50.175300" lon="4.406567"><time>2026-05-02T17:08:54Z</time></trkpt>
<trkpt lat="50.175760" lon="4.405587"><time>2026-05-02T17:18:54Z</time></trkpt>
<trkpt lat="50.176110" lon="4.404997"><time>2026-05-02T17:28:54Z</time></trkpt>
<trkpt lat="50.176300" lon="4.404237"><time>2026-05-02T17:38:54Z</time></trkpt>
</trkseg></trk>
<trk>
<name>ncrcr6</name>
<cmt>v</cmt>
<desc>Cerfontaine Chemin n°6 </desc>
<link href="https://chemins.be/cerfontaine/chemin/6"/><trkseg>
<trkpt lat="50.176300" lon="4.404237"><time>2026-05-02T17:38:54Z</time></trkpt>
<trkpt lat="50.176450" lon="4.403357"><time>2026-05-02T17:48:54Z</time></trkpt>
<trkpt lat="50.176430" lon="4.402367"><time>2026-05-02T17:58:54Z</time></trkpt>
<trkpt lat="50.176440" lon="4.402367"><time>2026-05-02T18:08:54Z</time></trkpt>
<trkpt lat="50.176200" lon="4.398667"><time>2026-05-02T18:18:54Z</time></trkpt>
<trkpt lat="50.176470" lon="4.397017"><time>2026-05-02T18:28:54Z</time></trkpt>
<trkpt lat="50.176590" lon="4.396807"><time>2026-05-02T18:38:54Z</time></trkpt>
<trkpt lat="50.177610" lon="4.397357"><time>2026-05-02T18:48:54Z</time></trkpt>
<trkpt lat="50.177600" lon="4.395897"><time>2026-05-02T18:58:54Z</time></trkpt>
<trkpt lat="50.176670" lon="4.393877"><time>2026-05-02T19:08:54Z</time></trkpt>
<trkpt lat="50.176730" lon="4.391396"><time>2026-05-02T19:18:54Z</time></trkpt>
<trkpt lat="50.175861" lon="4.388974"><time>2026-05-02T19:28:54Z</time></trkpt>
<trkpt lat="50.175620" lon="4.387986"><time>2026-05-02T19:38:54Z</time></trkpt>
<trkpt lat="50.175700" lon="4.386296"><time>2026-05-02T19:48:54Z</time></trkpt>
<trkpt lat="50.176250" lon="4.384406"><time>2026-05-02T19:58:54Z</time></trkpt>
<trkpt lat="50.176380" lon="4.381716"><time>2026-05-02T20:08:54Z</time></trkpt>
<trkpt lat="50.176820" lon="4.381096"><time>2026-05-02T20:18:54Z</time></trkpt>
</trkseg>
</trk>
</gpx>